createdAt,value
2023-02-27T00:01:09.604Z,9.60
2023-02-27T00:04:02.051Z,9.49
2023-02-27T00:06:51.304Z,9.57
2023-02-27T00:09:42.882Z,9.56
2023-02-27T00:12:37.710Z,9.59
2023-02-27T00:15:31.014Z,9.60
2023-02-27T00:18:24.161Z,9.61
2023-02-27T00:21:13.398Z,9.48
2023-02-27T00:24:02.564Z,9.61
2023-02-27T00:26:53.963Z,9.56
2023-02-27T00:29:49.762Z,9.57
2023-02-27T00:32:39.462Z,9.60
2023-02-27T00:36:02.039Z,9.53
2023-02-27T00:38:51.443Z,9.48
2023-02-27T00:41:40.658Z,9.51
2023-02-27T00:44:30.283Z,9.55
2023-02-27T00:47:19.664Z,9.50
2023-02-27T00:50:10.800Z,9.45
2023-02-27T00:53:01.582Z,9.43
2023-02-27T00:55:51.012Z,9.56
2023-02-27T00:58:40.210Z,9.50
2023-02-27T01:01:31.192Z,9.44
2023-02-27T01:04:20.729Z,9.51
2023-02-27T01:07:10.589Z,9.49
2023-02-27T01:10:11.872Z,9.50
2023-02-27T01:13:01.582Z,9.52
2023-02-27T01:15:51.317Z,9.51
2023-02-27T01:18:40.782Z,9.60
2023-02-27T01:21:29.936Z,9.50
2023-02-27T01:24:20.000Z,9.52
2023-02-27T01:27:12.109Z,9.54
2023-02-27T01:30:01.422Z,9.50
2023-02-27T01:32:50.576Z,9.51
2023-02-27T01:35:40.677Z,9.46
2023-02-27T01:38:29.847Z,9.41
2023-02-27T01:41:19.530Z,9.35
2023-02-27T01:44:13.663Z,9.29
2023-02-27T01:47:03.136Z,9.28
2023-02-27T01:49:54.114Z,9.22
2023-02-27T01:52:45.466Z,9.18
2023-02-27T01:55:39.763Z,9.00
2023-02-27T01:58:29.900Z,8.96
2023-02-27T02:01:21.867Z,8.87
2023-02-27T02:04:21.008Z,8.70
2023-02-27T02:07:16.773Z,8.72
2023-02-27T02:10:08.031Z,8.59
2023-02-27T02:12:57.678Z,8.58
2023-02-27T02:16:13.857Z,8.59
2023-02-27T02:19:54.494Z,8.64
2023-02-27T02:23:52.147Z,8.63
2023-02-27T02:27:04.937Z,8.67
2023-02-27T02:30:54.027Z,8.74
2023-02-27T02:34:19.042Z,8.70
2023-02-27T02:37:59.293Z,8.65
2023-02-27T02:40:56.021Z,8.62
2023-02-27T02:44:00.887Z,8.50
2023-02-27T02:46:57.914Z,8.45
2023-02-27T02:49:58.261Z,8.38
2023-02-27T02:53:02.669Z,8.40
2023-02-27T02:56:01.555Z,8.31
2023-02-27T02:59:00.825Z,8.33
2023-02-27T03:01:55.218Z,8.26
2023-02-27T03:04:50.602Z,8.34
2023-02-27T03:07:45.584Z,8.39
2023-02-27T03:10:39.117Z,8.48
2023-02-27T03:13:35.944Z,8.49
2023-02-27T03:16:31.207Z,8.47
2023-02-27T03:19:27.013Z,8.64
2023-02-27T03:22:23.285Z,8.61
2023-02-27T03:25:15.413Z,8.73
2023-02-27T03:28:15.501Z,8.73
2023-02-27T03:31:15.256Z,8.81
2023-02-27T03:34:14.541Z,8.86
2023-02-27T03:37:14.524Z,8.90
2023-02-27T03:40:18.631Z,8.94
2023-02-27T03:43:18.558Z,8.91
2023-02-27T03:46:19.589Z,8.93
2023-02-27T03:49:09.490Z,8.93
2023-02-27T03:51:59.283Z,8.92
2023-02-27T03:54:56.036Z,8.87
2023-02-27T03:57:47.869Z,8.87
2023-02-27T04:00:37.513Z,8.85
2023-02-27T04:03:29.049Z,8.87
2023-02-27T04:06:36.140Z,8.86
2023-02-27T04:09:44.467Z,8.77
2023-02-27T04:13:38.725Z,8.66
2023-02-27T04:17:05.373Z,8.57
2023-02-27T04:20:24.029Z,8.52
2023-02-27T04:23:20.780Z,8.41
2023-02-27T04:26:22.777Z,8.52
2023-02-27T04:29:18.698Z,8.51
2023-02-27T04:32:17.834Z,8.37
2023-02-27T04:35:16.942Z,8.33
2023-02-27T04:38:15.465Z,8.30
2023-02-27T04:41:10.104Z,8.24
2023-02-27T04:44:00.432Z,8.21
2023-02-27T04:46:51.806Z,8.16
2023-02-27T04:49:47.050Z,8.13
2023-02-27T04:52:42.779Z,8.15
2023-02-27T04:55:36.512Z,8.09
2023-02-27T04:58:30.874Z,8.14
2023-02-27T05:01:26.792Z,8.11
2023-02-27T05:04:21.130Z,8.07
2023-02-27T05:07:15.968Z,8.07
2023-02-27T05:10:13.799Z,8.04
2023-02-27T05:13:11.513Z,8.04
2023-02-27T05:16:09.591Z,8.06
2023-02-27T05:18:58.818Z,8.04
2023-02-27T05:21:57.133Z,8.11
2023-02-27T05:24:55.108Z,8.23
2023-02-27T05:27:51.285Z,8.31
2023-02-27T05:30:46.956Z,8.36
2023-02-27T05:33:42.013Z,8.43
2023-02-27T05:36:36.132Z,8.46
2023-02-27T05:39:30.052Z,8.38
2023-02-27T05:42:27.068Z,8.50
2023-02-27T05:45:23.708Z,8.46
2023-02-27T05:48:19.858Z,8.54
2023-02-27T05:51:12.430Z,8.60
2023-02-27T05:54:08.345Z,8.54
2023-02-27T05:57:00.968Z,8.58
2023-02-27T06:00:00.766Z,8.57
2023-02-27T06:02:51.459Z,8.50
2023-02-27T06:05:43.486Z,8.55
2023-02-27T06:08:32.764Z,8.62
2023-02-27T06:11:21.979Z,8.68
2023-02-27T06:14:11.134Z,8.71
2023-02-27T06:17:00.481Z,8.69
2023-02-27T06:19:51.176Z,8.67
2023-02-27T06:22:50.280Z,8.68
2023-02-27T06:25:40.194Z,8.68
2023-02-27T06:28:29.605Z,8.73
2023-02-27T06:31:21.830Z,8.74
2023-02-27T06:34:11.137Z,8.74
2023-02-27T06:37:04.161Z,8.73
2023-02-27T06:39:53.644Z,8.69
2023-02-27T06:42:44.312Z,8.78
2023-02-27T06:45:33.540Z,8.77
2023-02-27T06:48:22.749Z,8.75
2023-02-27T06:51:12.250Z,8.81
2023-02-27T06:54:10.847Z,8.63
2023-02-27T06:57:07.308Z,8.72
2023-02-27T06:59:59.724Z,8.79
2023-02-27T07:02:49.034Z,8.77
2023-02-27T07:05:38.322Z,8.78
2023-02-27T07:08:27.668Z,8.77
2023-02-27T07:11:21.062Z,8.77
2023-02-27T07:14:10.499Z,8.80
2023-02-27T07:17:03.430Z,8.85
2023-02-27T07:19:52.748Z,8.88
2023-02-27T07:22:42.829Z,8.84
2023-02-27T07:25:32.136Z,8.86
2023-02-27T07:28:25.335Z,8.83
2023-02-27T07:31:15.095Z,8.88
2023-02-27T07:34:04.834Z,8.84
2023-02-27T07:36:54.020Z,8.92
2023-02-27T07:39:43.466Z,8.86
2023-02-27T07:42:32.890Z,8.96
2023-02-27T07:45:27.942Z,8.99
2023-02-27T07:48:17.279Z,8.97
2023-02-27T07:51:07.451Z,8.94
2023-02-27T07:53:58.982Z,8.96
2023-02-27T07:56:48.431Z,8.86
2023-02-27T07:59:41.325Z,8.93
2023-02-27T08:02:38.513Z,8.93
2023-02-27T08:05:29.809Z,8.98
2023-02-27T08:08:19.036Z,8.97
2023-02-27T08:11:11.047Z,8.91
2023-02-27T08:14:01.784Z,9.06
2023-02-27T08:16:51.573Z,9.03
2023-02-27T08:19:42.329Z,9.05
2023-02-27T08:22:32.711Z,9.01
2023-02-27T08:25:25.291Z,9.08
2023-02-27T08:28:14.680Z,9.08
2023-02-27T08:31:03.931Z,9.03
2023-02-27T08:34:01.011Z,9.03
2023-02-27T08:36:55.923Z,9.07
2023-02-27T08:39:45.184Z,9.10
2023-02-27T08:42:34.757Z,9.03
2023-02-27T08:45:24.171Z,9.00
2023-02-27T08:48:15.931Z,9.02
2023-02-27T08:51:05.338Z,9.09
2023-02-27T08:53:58.971Z,9.12
2023-02-27T08:56:49.058Z,9.08
2023-02-27T08:59:38.236Z,9.07
2023-02-27T09:02:31.522Z,9.13
2023-02-27T09:05:23.010Z,9.12
2023-02-27T09:08:12.226Z,9.15
2023-02-27T09:11:03.133Z,9.11
2023-02-27T09:13:53.030Z,9.12
2023-02-27T09:16:42.454Z,9.12
2023-02-27T09:19:32.055Z,9.08
2023-02-27T09:22:21.436Z,9.12
2023-02-27T09:25:11.237Z,9.16
2023-02-27T09:28:01.905Z,9.17
2023-02-27T09:30:51.255Z,9.24
2023-02-27T09:33:40.727Z,9.34
2023-02-27T09:36:30.475Z,9.47
2023-02-27T09:39:19.870Z,9.59
2023-02-27T09:42:18.071Z,9.69
2023-02-27T09:45:17.705Z,9.74
2023-02-27T09:48:17.076Z,9.81
2023-02-27T09:51:06.906Z,9.70
2023-02-27T09:54:00.882Z,9.78
2023-02-27T09:56:55.641Z,9.88
2023-02-27T09:59:50.638Z,9.90
2023-02-27T10:02:55.672Z,10.03
2023-02-27T10:05:52.655Z,10.16
2023-02-27T10:08:53.671Z,10.24
2023-02-27T10:11:58.481Z,10.01
2023-02-27T10:14:51.668Z,9.96
2023-02-27T10:17:43.251Z,10.05
2023-02-27T10:20:38.497Z,10.09
2023-02-27T10:23:38.630Z,10.02
2023-02-27T10:26:33.121Z,9.93
2023-02-27T10:29:30.740Z,9.90
2023-02-27T10:32:24.099Z,9.85
2023-02-27T10:35:31.315Z,9.85
2023-02-27T10:38:33.242Z,9.76
2023-02-27T10:41:24.297Z,9.68
2023-02-27T10:44:18.766Z,9.64
2023-02-27T10:47:08.053Z,9.50
2023-02-27T10:50:00.360Z,9.55
2023-02-27T10:52:54.583Z,9.44
2023-02-27T10:55:58.666Z,9.35
2023-02-27T10:58:48.253Z,9.34
2023-02-27T11:01:46.057Z,9.40
2023-02-27T11:04:38.650Z,9.47
2023-02-27T11:07:32.472Z,9.49
2023-02-27T11:10:24.460Z,9.63
2023-02-27T11:13:22.805Z,9.59
2023-02-27T11:16:15.871Z,9.53
2023-02-27T11:19:24.871Z,9.66
2023-02-27T11:22:18.722Z,9.81
2023-02-27T11:25:24.504Z,9.94
2023-02-27T11:28:23.816Z,10.13
2023-02-27T11:31:20.397Z,10.07
2023-02-27T11:34:20.608Z,10.41
2023-02-27T11:37:23.480Z,10.64
2023-02-27T11:40:19.597Z,11.10
2023-02-27T11:43:21.224Z,11.33
2023-02-27T11:46:46.627Z,11.39
2023-02-27T11:49:34.921Z,11.67
2023-02-27T11:52:33.274Z,12.00
2023-02-27T11:55:28.036Z,12.24
2023-02-27T11:58:23.233Z,12.72
2023-02-27T12:01:24.993Z,13.40
2023-02-27T12:04:22.094Z,13.58
2023-02-27T12:07:22.212Z,13.55
2023-02-27T12:10:19.755Z,13.25
2023-02-27T12:13:18.028Z,12.85
2023-02-27T12:16:18.693Z,12.36
2023-02-27T12:19:17.508Z,11.86
2023-02-27T12:22:14.851Z,11.50
2023-02-27T12:25:12.092Z,11.25
2023-02-27T12:28:10.000Z,11.06
2023-02-27T12:31:32.428Z,10.93
2023-02-27T12:34:29.460Z,10.80
2023-02-27T12:37:24.912Z,10.85
2023-02-27T12:40:18.622Z,10.95
2023-02-27T12:43:28.283Z,11.24
2023-02-27T12:46:36.971Z,11.54
2023-02-27T12:49:40.567Z,11.75
2023-02-27T12:52:46.313Z,12.19
2023-02-27T12:55:42.877Z,12.77
2023-02-27T12:58:43.732Z,13.66
2023-02-27T13:01:47.709Z,14.29
2023-02-27T13:04:47.263Z,14.50
2023-02-27T13:07:46.386Z,14.23
2023-02-27T13:10:43.163Z,13.55
2023-02-27T13:13:39.946Z,12.83
2023-02-27T13:16:36.728Z,12.40
2023-02-27T13:19:33.480Z,12.00
2023-02-27T13:22:37.558Z,11.76
2023-02-27T13:25:28.001Z,11.51
2023-02-27T13:28:21.247Z,11.13
2023-02-27T13:31:24.502Z,11.07
2023-02-27T13:34:25.424Z,11.08
2023-02-27T13:37:16.232Z,10.89
2023-02-27T13:40:30.973Z,11.00
2023-02-27T13:43:46.492Z,11.03
2023-02-27T13:46:40.570Z,11.20
2023-02-27T13:49:31.351Z,11.07
2023-02-27T13:52:30.477Z,11.11
2023-02-27T13:55:31.202Z,10.90
2023-02-27T13:58:25.546Z,10.93
2023-02-27T14:01:23.805Z,10.69
2023-02-27T14:04:19.940Z,10.56
2023-02-27T14:07:15.278Z,10.38
2023-02-27T14:10:11.659Z,10.22
2023-02-27T14:13:03.755Z,10.33
2023-02-27T14:16:00.441Z,10.38
2023-02-27T14:18:57.768Z,10.36
2023-02-27T14:22:01.259Z,10.33
2023-02-27T14:25:03.667Z,10.11
2023-02-27T14:27:59.041Z,10.14
2023-02-27T14:30:55.601Z,10.23
2023-02-27T14:33:50.862Z,10.41
2023-02-27T14:36:47.634Z,10.61
2023-02-27T14:39:39.407Z,10.98
2023-02-27T14:42:46.047Z,11.87
2023-02-27T14:45:36.945Z,12.61
2023-02-27T14:48:29.964Z,13.09
2023-02-27T14:51:19.701Z,13.66
2023-02-27T14:54:16.481Z,13.77
2023-02-27T14:57:08.487Z,13.69
2023-02-27T14:59:57.819Z,13.33
2023-02-27T15:02:48.472Z,12.75
2023-02-27T15:05:39.522Z,12.48
2023-02-27T15:08:33.310Z,12.26
2023-02-27T15:11:24.604Z,12.09
2023-02-27T15:14:22.630Z,11.94
2023-02-27T15:17:24.243Z,11.80
2023-02-27T15:20:30.011Z,11.66
2023-02-27T15:23:26.980Z,11.47
2023-02-27T15:26:16.275Z,11.20
2023-02-27T15:29:08.183Z,11.18
2023-02-27T15:31:57.435Z,11.13
2023-02-27T15:34:48.141Z,11.10
2023-02-27T15:37:40.170Z,11.13
2023-02-27T15:40:31.969Z,11.10
2023-02-27T15:43:22.973Z,11.12
2023-02-27T15:46:12.304Z,11.19
2023-02-27T15:49:01.678Z,11.11
2023-02-27T15:52:01.484Z,10.86
2023-02-27T15:54:54.824Z,10.74
2023-02-27T15:58:00.762Z,10.54
2023-02-27T16:01:00.871Z,10.56
2023-02-27T16:03:53.590Z,10.57
2023-02-27T16:06:48.680Z,10.55
2023-02-27T16:09:39.260Z,10.60
2023-02-27T16:12:36.951Z,10.58
2023-02-27T16:15:32.558Z,10.69
2023-02-27T16:18:31.901Z,10.72
2023-02-27T16:21:22.971Z,10.81
2023-02-27T16:24:22.926Z,10.70
2023-02-27T16:27:20.907Z,10.72
2023-02-27T16:30:17.233Z,10.69
2023-02-27T16:33:06.846Z,10.64
2023-02-27T16:36:16.947Z,10.55
2023-02-27T16:39:08.468Z,10.51
2023-02-27T16:41:59.951Z,10.45
2023-02-27T16:44:49.190Z,10.39
2023-02-27T16:47:39.836Z,10.35
2023-02-27T16:50:32.927Z,10.28
2023-02-27T16:53:22.362Z,10.20
2023-02-27T16:56:13.094Z,10.21
2023-02-27T16:59:03.651Z,10.18
2023-02-27T17:01:53.378Z,10.19
2023-02-27T17:04:47.718Z,10.08
2023-02-27T17:07:37.672Z,10.00
2023-02-27T17:10:27.396Z,10.05
2023-02-27T17:13:17.420Z,10.01
2023-02-27T17:16:08.445Z,10.02
2023-02-27T17:18:57.646Z,9.97
2023-02-27T17:21:48.292Z,9.94
2023-02-27T17:24:38.784Z,9.83
2023-02-27T17:27:28.162Z,9.84
2023-02-27T17:30:18.755Z,9.81
2023-02-27T17:33:08.131Z,9.79
2023-02-27T17:36:03.723Z,9.68
2023-02-27T17:38:57.896Z,9.72
2023-02-27T17:41:48.265Z,9.66
2023-02-27T17:44:37.896Z,9.72
2023-02-27T17:47:27.178Z,9.72
2023-02-27T17:50:17.036Z,9.69
2023-02-27T17:53:06.277Z,9.65
2023-02-27T17:55:56.945Z,9.63
2023-02-27T17:58:46.227Z,9.53
2023-02-27T18:01:36.817Z,9.60
2023-02-27T18:04:26.382Z,9.62
2023-02-27T18:07:15.646Z,9.62
2023-02-27T18:10:06.602Z,9.62
2023-02-27T18:12:57.243Z,9.62
2023-02-27T18:15:47.507Z,9.53
2023-02-27T18:18:37.679Z,9.59
2023-02-27T18:21:27.293Z,9.67
2023-02-27T18:24:17.845Z,9.47
2023-02-27T18:27:07.069Z,9.61
2023-02-27T18:29:59.438Z,9.63
2023-02-27T18:32:48.797Z,9.64
2023-02-27T18:35:38.181Z,9.55
2023-02-27T18:38:28.086Z,9.55
2023-02-27T18:41:17.375Z,9.56
2023-02-27T18:44:08.067Z,9.59
2023-02-27T18:46:58.744Z,9.56
2023-02-27T18:49:48.193Z,9.59
2023-02-27T18:52:38.613Z,9.59
2023-02-27T18:55:28.624Z,9.54
2023-02-27T18:58:17.837Z,9.58
2023-02-27T19:01:08.104Z,9.64
2023-02-27T19:04:03.918Z,9.65
2023-02-27T19:06:53.515Z,9.70
2023-02-27T19:09:43.189Z,9.70
2023-02-27T19:12:32.686Z,9.70
2023-02-27T19:15:22.014Z,9.73
2023-02-27T19:18:11.300Z,9.75
2023-02-27T19:21:06.749Z,9.67
2023-02-27T19:23:56.530Z,9.77
2023-02-27T19:26:47.291Z,9.76
2023-02-27T19:29:36.644Z,9.76
2023-02-27T19:32:26.019Z,9.74
2023-02-27T19:35:17.899Z,9.70
2023-02-27T19:38:08.668Z,9.74
2023-02-27T19:41:03.315Z,9.68
2023-02-27T19:43:53.665Z,9.69
2023-02-27T19:46:43.618Z,9.74
2023-02-27T19:49:33.544Z,9.73
2023-02-27T19:52:22.995Z,9.72
2023-02-27T19:55:13.991Z,9.71
2023-02-27T19:58:03.304Z,9.78
2023-02-27T20:00:52.711Z,9.60
2023-02-27T20:03:43.812Z,9.65
2023-02-27T20:06:42.367Z,9.75
2023-02-27T20:09:34.523Z,9.66
2023-02-27T20:12:26.880Z,9.71
2023-02-27T20:15:16.271Z,9.67
2023-02-27T20:18:05.654Z,9.66
2023-02-27T20:21:03.729Z,9.68
2023-02-27T20:23:53.534Z,9.73
2023-02-27T20:26:46.191Z,9.76
2023-02-27T20:29:37.088Z,9.75
2023-02-27T20:32:26.840Z,9.75
2023-02-27T20:35:16.999Z,9.75
2023-02-27T20:38:06.854Z,9.74
2023-02-27T20:40:59.222Z,9.68
2023-02-27T20:43:48.442Z,9.69
2023-02-27T20:46:41.586Z,9.71
2023-02-27T20:49:30.529Z,9.72
2023-02-27T20:52:19.760Z,9.72
2023-02-27T20:55:10.330Z,9.73
2023-02-27T20:57:59.756Z,9.65
2023-02-27T21:00:48.964Z,9.71
2023-02-27T21:03:42.478Z,9.63
2023-02-27T21:06:32.312Z,9.65
2023-02-27T21:09:22.390Z,9.58
2023-02-27T21:12:12.767Z,9.63
2023-02-27T21:15:01.983Z,9.64
2023-02-27T21:17:51.330Z,9.60
2023-02-27T21:20:43.746Z,9.70
2023-02-27T21:23:33.933Z,9.69
2023-02-27T21:26:26.326Z,9.79
2023-02-27T21:29:19.019Z,9.77
2023-02-27T21:32:08.362Z,9.78
2023-02-27T21:34:57.722Z,9.78
2023-02-27T21:37:49.243Z,9.81
2023-02-27T21:40:38.537Z,9.85
2023-02-27T21:43:27.838Z,9.88
2023-02-27T21:46:17.327Z,9.84
2023-02-27T21:49:06.996Z,9.90
2023-02-27T21:51:57.160Z,9.89
2023-02-27T21:54:47.870Z,9.88
2023-02-27T21:57:38.256Z,9.89
2023-02-27T22:00:29.421Z,9.85
2023-02-27T22:03:19.074Z,9.87
2023-02-27T22:06:09.342Z,9.89
2023-02-27T22:09:01.448Z,9.85
2023-02-27T22:11:52.187Z,9.81
2023-02-27T22:14:43.413Z,9.83
2023-02-27T22:17:32.774Z,9.85
2023-02-27T22:20:22.341Z,9.84
2023-02-27T22:23:11.696Z,9.85
2023-02-27T22:26:02.483Z,9.77
2023-02-27T22:28:55.801Z,9.85
2023-02-27T22:31:45.994Z,9.82
2023-02-27T22:34:35.613Z,9.79
2023-02-27T22:37:25.403Z,9.86
2023-02-27T22:40:16.490Z,9.88
2023-02-27T22:43:06.214Z,9.87
2023-02-27T22:45:58.308Z,9.86
2023-02-27T22:48:47.501Z,9.79
2023-02-27T22:51:37.324Z,9.87
2023-02-27T22:54:26.490Z,9.84
2023-02-27T22:57:15.876Z,9.91
2023-02-27T23:00:07.130Z,9.91
2023-02-27T23:02:57.849Z,9.94
2023-02-27T23:05:48.034Z,9.79
2023-02-27T23:08:38.172Z,9.90
2023-02-27T23:11:28.152Z,9.88
2023-02-27T23:14:18.044Z,9.89
2023-02-27T23:17:07.359Z,9.93
2023-02-27T23:19:58.075Z,9.89
2023-02-27T23:22:47.613Z,9.95
2023-02-27T23:25:38.931Z,9.92
2023-02-27T23:28:28.217Z,9.94
2023-02-27T23:31:17.978Z,9.92
2023-02-27T23:34:08.113Z,9.90
2023-02-27T23:36:58.718Z,9.85
2023-02-27T23:39:47.998Z,9.92
2023-02-27T23:42:37.205Z,9.95
2023-02-27T23:45:26.596Z,9.96
2023-02-27T23:48:15.915Z,9.91
2023-02-27T23:51:07.972Z,9.91
2023-02-27T23:53:58.706Z,9.93
2023-02-27T23:56:49.436Z,9.94
2023-02-27T23:59:38.777Z,9.91
